Time;durP1;ratioP1;P1;durP2;ratioP2;P2;SDS_P1;SDS_P2;PMS_P1;PMS_P2;Temp;Humidity;BMP_temperature;BMP_pressure;BME280_temperature;BME280_humidity;BME280_pressure;Samples;Min_cycle;Max_cycle;Signal;HPM_P1;HPM_P2
2022/04/01 00:02:24;;;;;;;0.10;0.10;;;;;;;4.76;52.97;100025.88;5028992;28;20540;-66
2022/04/01 00:04:50;;;;;;;0.10;0.10;;;;;;;4.99;52.27;100026.22;5018911;28;20029;-66
2022/04/01 00:07:15;;;;;;;0.10;0.10;;;;;;;4.90;51.96;100028.97;5011117;28;20420;-66
2022/04/01 00:09:41;;;;;;;0.10;0.10;;;;;;;5.00;52.65;100030.44;5028803;28;20025;-65
2022/04/01 00:12:08;;;;;;;0.10;0.10;;;;;;;4.88;52.58;100025.88;5027173;28;20490;-66
2022/04/01 00:14:34;;;;;;;0.10;0.10;;;;;;;4.72;52.92;100027.66;5024230;28;20124;-66
2022/04/01 00:17:00;;;;;;;0.10;0.10;;;;;;;4.73;53.16;100034.53;5029186;28;20126;-66
2022/04/01 00:19:26;;;;;;;0.10;0.10;;;;;;;4.78;53.24;100026.28;5024399;28;20044;-66
2022/04/01 00:21:52;;;;;;;0.10;0.10;;;;;;;4.89;53.03;100024.78;5025141;28;20052;-67
2022/04/01 00:24:18;;;;;;;0.20;0.20;;;;;;;4.76;53.50;100028.53;5011292;28;20502;-66
2022/04/01 00:26:45;;;;;;;0.10;0.10;;;;;;;4.65;52.82;100030.06;5027906;28;20052;-64
2022/04/01 00:29:18;;;;;;;0.20;0.20;;;;;;;4.67;53.88;100035.84;4996285;28;20025;-67
2022/04/01 00:31:43;;;;;;;0.20;0.20;;;;;;;4.75;52.93;100026.97;5011330;28;20034;-65
2022/04/01 00:34:15;;;;;;;0.10;0.10;;;;;;;4.65;53.82;100031.94;5028315;28;20063;-66
2022/04/01 00:36:49;;;;;;;0.10;0.10;;;;;;;4.73;53.55;100023.84;5008179;28;20033;-65
2022/04/01 00:39:16;;;;;;;0.20;0.20;;;;;;;4.77;53.71;100019.41;5024800;28;20488;-66
2022/04/01 00:41:46;;;;;;;0.20;0.20;;;;;;;4.79;53.91;100027.88;5028929;28;20457;-65
2022/04/01 00:44:22;;;;;;;0.10;0.10;;;;;;;4.77;53.25;100027.41;5013224;28;20029;-66
2022/04/01 00:46:56;;;;;;;0.10;0.10;;;;;;;4.52;53.33;100012.47;5011368;28;20469;-65
2022/04/01 00:49:24;;;;;;;0.10;0.10;;;;;;;4.59;53.70;100024.16;5007192;28;20030;-65
2022/04/01 00:51:52;;;;;;;0.03;0.03;;;;;;;4.51;53.94;100024.25;5014543;28;20211;-66
2022/04/01 00:54:18;;;;;;;0.20;0.20;;;;;;;4.55;53.96;100019.81;5033227;28;20029;-65
2022/04/01 00:56:44;;;;;;;0.10;0.10;;;;;;;4.55;53.78;100019.81;5027862;28;20037;-66
2022/04/01 00:59:11;;;;;;;0.10;0.10;;;;;;;4.54;54.09;100024.38;5033404;28;20544;-66
2022/04/01 01:01:38;;;;;;;0.10;0.10;;;;;;;4.58;54.11;100021.84;5011094;28;20036;-64
2022/04/01 01:04:08;;;;;;;0.10;0.10;;;;;;;4.76;54.03;100022.41;5020378;28;20037;-65
2022/04/01 01:06:37;;;;;;;0.10;0.10;;;;;;;4.68;54.18;100015.28;5029227;28;20371;-64
2022/04/01 01:09:03;;;;;;;0.10;0.10;;;;;;;4.65;53.92;100022.06;5014954;28;20132;-64
2022/04/01 01:11:31;;;;;;;0.10;0.10;;;;;;;4.68;53.72;100021.41;5012241;28;20040;-65
2022/04/01 01:13:57;;;;;;;0.20;0.20;;;;;;;4.66;53.67;100026.28;5031760;28;20052;-66
2022/04/01 01:16:23;;;;;;;0.20;0.20;;;;;;;4.56;54.07;100018.72;5014854;28;20411;-66
2022/04/01 01:19:07;;;;;;;0.10;0.10;;;;;;;4.79;52.97;100009.19;5011486;28;20547;-65
2022/04/01 01:21:33;;;;;;;0.10;0.10;;;;;;;4.50;54.34;100010.16;5010236;28;20041;-66
2022/04/01 01:24:17;;;;;;;1.45;0.43;;;;;;;4.61;54.48;100009.75;5028970;28;20451;-66
2022/04/01 01:26:48;;;;;;;0.10;0.10;;;;;;;4.67;54.12;100014.50;5014995;28;20467;-64
2022/04/01 01:29:18;;;;;;;0.25;0.25;;;;;;;4.61;54.58;100010.50;5010346;28;20037;-65
2022/04/01 01:31:46;;;;;;;0.20;0.20;;;;;;;4.50;54.69;100001.38;4998852;28;20087;-65
2022/04/01 01:34:11;;;;;;;0.20;0.20;;;;;;;4.57;54.77;100004.25;5015239;28;20033;-65
2022/04/01 01:36:37;;;;;;;0.10;0.10;;;;;;;4.68;54.76;100008.09;5012366;28;20397;-67
2022/04/01 01:39:04;;;;;;;0.10;0.10;;;;;;;4.59;54.55;100005.50;5012988;28;20030;-66
2022/04/01 01:41:29;;;;;;;0.10;0.10;;;;;;;4.59;54.78;100013.50;5031718;28;20037;-66
2022/04/01 01:43:55;;;;;;;0.10;0.10;;;;;;;4.55;55.52;100009.94;5014483;28;20033;-66
2022/04/01 01:46:21;;;;;;;0.10;0.10;;;;;;;4.64;55.31;100007.19;5007776;28;20577;-67
2022/04/01 01:48:47;;;;;;;0.10;0.10;;;;;;;4.61;55.09;100005.16;5028088;28;20378;-64
2022/04/01 01:56:44;;;;;;;0.10;0.10;;;;;;;4.47;56.24;100010.03;5018587;28;20033;-64
2022/04/01 01:59:11;;;;;;;0.10;0.10;;;;;;;4.51;55.61;100000.25;5001996;28;20018;-65
2022/04/01 02:01:41;;;;;;;0.10;0.10;;;;;;;4.39;55.67;100006.31;5008657;28;20040;-64
2022/04/01 02:04:06;;;;;;;0.10;0.10;;;;;;;4.24;55.66;100006.19;5027585;28;20053;-65
2022/04/01 02:06:32;;;;;;;0.10;0.10;;;;;;;4.38;55.79;100006.66;5013303;28;20060;-64
2022/04/01 02:08:58;;;;;;;0.10;0.10;;;;;;;4.31;56.05;100003.78;5013289;28;20041;-64
2022/04/01 02:11:25;;;;;;;0.10;0.10;;;;;;;4.36;56.27;99999.00;4994877;28;20308;-65
2022/04/01 02:13:51;;;;;;;0.13;0.13;;;;;;;4.48;56.61;100006.25;5027602;28;20120;-65
2022/04/01 02:16:18;;;;;;;0.10;0.10;;;;;;;4.45;56.53;100002.34;5012597;28;20116;-65
2022/04/01 02:18:44;;;;;;;0.10;0.10;;;;;;;4.59;56.20;100005.50;5030867;28;20037;-64
2022/04/01 02:21:11;;;;;;;0.20;0.20;;;;;;;4.43;56.67;100009.13;5008747;28;20033;-65
2022/04/01 02:23:38;;;;;;;0.10;0.10;;;;;;;4.56;56.54;100008.06;5028817;28;20036;-66
2022/04/01 02:26:05;;;;;;;0.10;0.10;;;;;;;4.29;56.06;100004.09;5012764;28;20049;-64
2022/04/01 02:28:31;;;;;;;0.10;0.10;;;;;;;4.26;57.05;100009.28;5013170;28;20068;-66
2022/04/01 02:30:57;;;;;;;0.10;0.10;;;;;;;4.18;57.94;100007.50;5009413;28;20446;-65
2022/04/01 02:33:42;;;;;;;0.10;0.10;;;;;;;4.21;58.12;100006.84;5030240;28;20048;-64
2022/04/01 02:36:10;;;;;;;0.22;0.22;;;;;;;4.24;58.24;100006.97;5032132;28;20072;-64
2022/04/01 02:38:41;;;;;;;0.10;0.10;;;;;;;4.30;58.06;100007.53;5005333;28;20022;-64
2022/04/01 02:41:11;;;;;;;0.10;0.10;;;;;;;4.38;57.98;100002.13;5020823;28;20033;-64
2022/04/01 02:43:39;;;;;;;0.10;0.10;;;;;;;4.34;58.06;99995.88;4996880;28;20037;-64
2022/04/01 02:46:05;;;;;;;0.20;0.20;;;;;;;4.34;57.15;99998.56;4996291;28;20025;-64
2022/04/01 02:48:34;;;;;;;0.10;0.10;;;;;;;4.19;57.83;100004.50;5009003;28;20069;-65
2022/04/01 02:51:19;;;;;;;0.10;0.10;;;;;;;4.09;58.35;100002.25;5019429;28;20099;-64
2022/04/01 02:53:47;;;;;;;0.10;0.10;;;;;;;4.17;57.45;100006.72;5012485;28;20533;-64
2022/04/01 02:56:13;;;;;;;0.10;0.10;;;;;;;4.20;57.40;99999.97;5003530;28;20029;-64
2022/04/01 02:58:39;;;;;;;0.10;0.10;;;;;;;4.19;57.99;100012.50;5011121;28;20029;-63
2022/04/01 03:01:05;;;;;;;0.13;0.13;;;;;;;4.18;58.01;100010.16;5011246;28;20030;-64
2022/04/01 03:03:31;;;;;;;0.13;0.13;;;;;;;4.34;56.85;100011.88;5011356;28;20083;-64
2022/04/01 03:05:58;;;;;;;0.10;0.10;;;;;;;4.20;57.30;100022.03;5012177;28;20029;-65
2022/04/01 03:08:26;;;;;;;0.20;0.20;;;;;;;4.18;57.29;100012.84;5011680;28;20138;-64
2022/04/01 03:10:53;;;;;;;0.22;0.22;;;;;;;4.20;58.04;100015.94;5009724;28;20044;-64
2022/04/01 03:13:18;;;;;;;0.10;0.10;;;;;;;4.19;57.53;100015.16;5011508;28;20055;-65
2022/04/01 03:16:04;;;;;;;0.10;0.10;;;;;;;4.26;57.12;100023.41;5009504;28;20120;-64
2022/04/01 03:18:41;;;;;;;0.10;0.10;;;;;;;4.18;57.54;100028.81;5006723;28;20500;-64
2022/04/01 03:21:10;;;;;;;0.00;0.00;;;;;;;4.11;57.57;100025.88;5008565;28;20036;-66
2022/04/01 03:23:43;;;;;;;0.10;0.10;;;;;;;4.04;57.56;100022.97;5011506;28;20032;-64
2022/04/01 03:26:11;;;;;;;0.10;0.10;;;;;;;4.31;56.71;100027.75;5012245;28;20037;-65
2022/04/01 03:28:49;;;;;;;0.10;0.10;;;;;;;4.31;56.27;100017.09;5010643;28;20045;-64
2022/04/01 03:31:15;;;;;;;0.20;0.20;;;;;;;3.98;56.26;100024.28;5023820;28;20092;-64
2022/04/01 03:33:41;;;;;;;0.20;0.20;;;;;;;3.92;57.21;100030.91;5020351;28;20282;-64
2022/04/01 03:36:08;;;;;;;0.20;0.20;;;;;;;4.01;57.30;100035.06;4998481;28;20041;-65
2022/04/01 03:38:39;;;;;;;;;;;;;;;3.98;57.08;100040.25;5007755;28;20118;-64
2022/04/01 03:41:10;;;;;;;0.30;0.30;;;;;;;4.14;57.30;100042.00;4993895;28;19916;-65
2022/04/01 03:43:36;;;;;;;0.20;0.20;;;;;;;4.11;57.09;100049.88;4999868;28;20053;-67
2022/04/01 03:46:13;;;;;;;0.10;0.10;;;;;;;4.08;56.85;100038.00;5007578;28;20114;-65
2022/04/01 03:48:44;;;;;;;0.10;0.10;;;;;;;4.01;57.57;100031.59;5010579;28;20037;-65
2022/04/01 03:51:18;;;;;;;0.20;0.20;;;;;;;3.92;57.28;100038.91;5012515;28;20555;-64
2022/04/01 03:54:01;;;;;;;0.10;0.10;;;;;;;4.08;56.86;100031.88;5009126;28;20056;-66
2022/04/01 03:56:58;;;;;;;0.10;0.10;;;;;;;4.13;57.29;100037.00;5025174;28;20064;-64
2022/04/01 04:00:05;;;;;;;0.10;0.10;;;;;;;4.16;56.43;100044.34;5029061;28;20354;-63
2022/04/01 04:02:43;;;;;;;0.15;0.15;;;;;;;4.02;57.65;100046.50;5019409;28;20091;-64
2022/04/01 04:05:10;;;;;;;;;;;;;;;4.05;57.45;100045.84;5002736;28;20086;-65
2022/04/01 04:07:39;;;;;;;0.10;0.10;;;;;;;3.98;57.87;100056.25;5008146;28;19913;-65
2022/04/01 04:10:09;;;;;;;0.10;0.10;;;;;;;3.89;58.25;100042.97;5010406;28;20060;-64
2022/04/01 04:12:49;;;;;;;0.10;0.10;;;;;;;4.00;58.42;100049.50;5011076;28;20176;-65
2022/04/01 04:15:15;;;;;;;0.10;0.10;;;;;;;4.19;58.25;100054.34;5005606;28;20411;-66
2022/04/01 04:17:45;;;;;;;0.10;0.10;;;;;;;4.03;58.59;100054.16;5009671;28;20485;-63
2022/04/01 04:20:33;;;;;;;0.10;0.10;;;;;;;4.04;58.71;100054.94;5010477;28;20052;-64
2022/04/01 04:23:16;;;;;;;0.30;0.20;;;;;;;4.02;59.36;100055.28;5011843;28;20072;-65
2022/04/01 04:25:53;;;;;;;0.15;0.15;;;;;;;4.08;59.44;100053.97;5008883;28;20079;-65
2022/04/01 04:28:25;;;;;;;0.10;0.10;;;;;;;4.18;59.33;100064.22;5010103;28;20029;-65
2022/04/01 04:31:03;;;;;;;0.10;0.10;;;;;;;4.21;60.08;100060.91;5010903;28;20041;-65
2022/04/01 04:33:50;;;;;;;0.10;0.10;;;;;;;4.06;60.96;100060.72;5004178;28;20121;-66
2022/04/01 04:36:26;;;;;;;0.20;0.20;;;;;;;4.12;61.63;100070.84;5005344;28;20083;-64
2022/04/01 04:39:02;;;;;;;0.10;0.10;;;;;;;4.09;62.20;100076.03;5021084;28;20033;-66
2022/04/01 04:41:28;;;;;;;0.10;0.10;;;;;;;4.00;62.10;100072.69;4989450;28;20685;-64
2022/04/01 04:44:03;;;;;;;0.20;0.20;;;;;;;3.96;62.80;100079.75;5027162;28;20030;-63
2022/04/01 04:46:32;;;;;;;0.17;0.17;;;;;;;4.08;62.89;100087.81;4984154;28;20053;-64
2022/04/01 04:48:59;;;;;;;0.20;0.20;;;;;;;4.09;63.34;100086.69;4974447;28;20096;-66
2022/04/01 04:51:30;;;;;;;0.10;0.10;;;;;;;4.05;63.42;100094.56;5005545;28;20396;-66
2022/04/01 04:54:12;;;;;;;0.10;0.10;;;;;;;3.92;63.76;100086.84;4997411;28;20807;-65
2022/04/01 04:56:44;;;;;;;0.10;0.10;;;;;;;3.89;64.77;100096.25;5006548;28;20037;-64
2022/04/01 04:59:12;;;;;;;0.20;0.20;;;;;;;4.04;64.19;100090.34;4998559;28;20366;-65
2022/04/01 05:01:54;;;;;;;0.30;0.30;;;;;;;4.10;64.64;100101.59;5019263;28;20065;-64
2022/04/01 05:04:25;;;;;;;0.20;0.20;;;;;;;3.96;64.92;100104.50;5000993;28;20049;-65
2022/04/01 05:07:08;;;;;;;0.10;0.10;;;;;;;4.00;64.82;100107.31;5004570;28;20037;-64
2022/04/01 05:10:08;;;;;;;0.15;0.15;;;;;;;4.13;64.86;100115.03;5008851;28;20071;-65
2022/04/01 05:12:42;;;;;;;0.10;0.10;;;;;;;4.11;65.01;100113.78;5005263;28;20030;-66
2022/04/01 05:15:34;;;;;;;0.32;0.32;;;;;;;4.15;65.26;100120.81;4999562;28;20037;-66
2022/04/01 05:18:09;;;;;;;0.10;0.10;;;;;;;4.00;65.60;100129.41;5008841;28;20025;-65
2022/04/01 05:20:38;;;;;;;0.10;0.10;;;;;;;4.11;65.33;100124.44;5015832;28;20508;-65
2022/04/01 05:23:13;;;;;;;0.20;0.20;;;;;;;4.13;65.60;100132.91;4993354;28;20079;-65
2022/04/01 05:25:45;;;;;;;0.20;0.20;;;;;;;4.10;65.50;100141.56;5007192;28;20047;-65
2022/04/01 05:28:36;;;;;;;0.65;0.60;;;;;;;4.03;66.02;100134.06;5011100;28;20077;-65
2022/04/01 05:31:12;;;;;;;0.10;0.10;;;;;;;4.14;65.83;100135.22;5011341;28;20030;-65
2022/04/01 05:33:51;;;;;;;0.40;0.30;;;;;;;4.21;65.74;100140.06;5012372;28;20456;-66
2022/04/01 05:36:18;;;;;;;0.20;0.20;;;;;;;4.11;66.07;100140.44;5004187;28;20392;-65
2022/04/01 05:38:43;;;;;;;0.10;0.10;;;;;;;4.13;67.04;100135.56;5006847;28;21928;-65
2022/04/01 05:41:10;;;;;;;0.22;0.22;;;;;;;4.19;66.56;100151.03;5006909;28;20116;-66
2022/04/01 05:43:38;;;;;;;0.10;0.10;;;;;;;4.17;66.81;100145.25;5018171;28;20021;-66
2022/04/01 05:46:22;;;;;;;;;;;;;;;4.25;66.43;100148.97;5011957;28;20421;-65
2022/04/01 05:48:49;;;;;;;0.22;0.22;;;;;;;4.26;66.23;100148.63;5008580;28;19945;-65
2022/04/01 05:51:15;;;;;;;0.10;0.10;;;;;;;4.24;66.05;100144.75;4997921;28;20033;-66
2022/04/01 05:53:47;;;;;;;0.10;0.10;;;;;;;4.32;65.62;100154.53;5010146;28;20582;-66
2022/04/01 05:56:14;;;;;;;0.10;0.10;;;;;;;4.18;66.18;100154.03;5007294;28;20509;-66
2022/04/01 05:58:42;;;;;;;0.10;0.10;;;;;;;4.32;66.16;100162.53;5005642;28;20042;-65
2022/04/01 06:01:45;;;;;;;0.10;0.10;;;;;;;4.23;65.77;100159.16;5008042;28;20030;-65
2022/04/01 06:04:26;;;;;;;0.20;0.20;;;;;;;4.35;65.82;100172.56;5023654;28;20083;-65
2022/04/01 06:06:57;;;;;;;0.20;0.20;;;;;;;4.29;66.29;100171.19;5003364;28;20132;-65
2022/04/01 06:10:09;;;;;;;0.10;0.10;;;;;;;4.36;66.26;100169.56;5013119;28;20041;-65
2022/04/01 06:13:19;;;;;;;0.10;0.10;;;;;;;4.33;66.41;100180.09;4948755;28;20559;-65
2022/04/01 06:16:34;;;;;;;0.22;0.22;;;;;;;4.31;65.78;100188.41;5014365;28;20045;-65
2022/04/01 06:19:26;;;;;;;0.20;0.20;;;;;;;4.50;66.32;100186.09;5004081;28;20041;-65
2022/04/01 06:22:15;;;;;;;0.10;0.10;;;;;;;4.54;65.75;100192.31;5013118;28;20037;-65
2022/04/01 06:25:16;;;;;;;0.10;0.10;;;;;;;4.49;65.92;100195.16;5004039;28;20029;-64
2022/04/01 06:27:48;;;;;;;0.22;0.22;;;;;;;4.50;66.58;100201.28;5005069;28;20696;-65
2022/04/01 06:30:19;;;;;;;0.20;0.20;;;;;;;4.46;66.29;100206.50;5005418;28;20032;-65
2022/04/01 06:32:53;;;;;;;0.20;0.20;;;;;;;4.53;66.57;100213.94;5004645;28;20025;-65
2022/04/01 06:35:29;;;;;;;0.20;0.20;;;;;;;4.65;65.97;100219.34;5010471;28;20047;-65
2022/04/01 06:38:08;;;;;;;0.20;0.20;;;;;;;4.54;66.12;100215.53;5009062;28;20029;-65
2022/04/01 06:40:36;;;;;;;0.63;0.63;;;;;;;4.58;66.14;100211.13;4997877;28;20025;-65
2022/04/01 06:43:04;;;;;;;0.10;0.10;;;;;;;4.58;66.30;100206.56;5002090;28;20064;-65
2022/04/01 06:45:33;;;;;;;0.10;0.10;;;;;;;4.51;66.23;100213.50;5020554;28;20054;-65
2022/04/01 06:48:31;;;;;;;0.30;0.30;;;;;;;4.62;66.96;100220.03;5008533;28;20120;-65
2022/04/01 06:51:15;;;;;;;0.43;0.43;;;;;;;4.73;67.02;100221.19;5024077;28;20408;-65
2022/04/01 06:54:19;;;;;;;0.10;0.10;;;;;;;4.77;67.58;100227.41;4928044;29;20044;-65
2022/04/01 06:57:10;;;;;;;0.20;0.20;;;;;;;4.71;67.78;100227.94;4929223;29;20096;-65
2022/04/01 06:59:57;;;;;;;0.10;0.10;;;;;;;4.91;67.12;100227.94;4988986;28;20077;-65
2022/04/01 07:02:23;;;;;;;1.08;0.38;;;;;;;4.99;66.72;100226.31;5012084;28;20440;-65
2022/04/01 07:04:49;;;;;;;0.20;0.20;;;;;;;5.00;66.78;100225.97;5028667;28;20053;-65
2022/04/01 07:07:15;;;;;;;0.20;0.20;;;;;;;5.09;66.33;100236.56;5028815;28;20037;-65
2022/04/01 07:09:40;;;;;;;0.20;0.20;;;;;;;5.07;67.01;100252.13;5021338;28;20104;-66
2022/04/01 07:12:07;;;;;;;0.10;0.10;;;;;;;4.91;67.09;100249.28;5018854;28;20451;-65
2022/04/01 07:14:32;;;;;;;0.10;0.10;;;;;;;4.98;67.18;100249.53;5018228;28;20547;-65
2022/04/01 07:16:58;;;;;;;0.10;0.10;;;;;;;5.23;65.76;100258.41;5006779;28;20033;-66
2022/04/01 07:19:24;;;;;;;0.10;0.10;;;;;;;5.17;66.33;100252.50;5027636;28;20037;-65
2022/04/01 07:21:50;;;;;;;0.20;0.20;;;;;;;5.09;67.51;100252.59;5005553;28;20040;-66
2022/04/01 07:24:15;;;;;;;0.10;0.10;;;;;;;5.20;67.36;100261.72;5007384;28;20057;-65
2022/04/01 07:26:44;;;;;;;0.20;0.20;;;;;;;5.15;66.19;100253.94;5010542;28;20033;-65
2022/04/01 07:29:10;;;;;;;0.20;0.20;;;;;;;5.05;66.45;100267.69;5023404;28;20377;-65
2022/04/01 07:34:36;;;;;;;0.10;0.10;;;;;;;5.21;66.10;100274.75;5029480;28;20396;-64
2022/04/01 07:37:24;;;;;;;0.20;0.20;;;;;;;5.06;65.42;100269.22;5028655;28;20067;-65
2022/04/01 07:39:52;;;;;;;0.10;0.10;;;;;;;5.13;65.34;100272.94;4954073;28;20432;-64
2022/04/01 07:42:20;;;;;;;0.20;0.20;;;;;;;5.12;66.26;100274.06;4949225;28;20125;-65
2022/04/01 07:44:46;;;;;;;0.10;0.10;;;;;;;5.41;64.12;100268.59;4963960;28;20039;-66
2022/04/01 07:47:14;;;;;;;0.10;0.10;;;;;;;5.39;64.44;100260.13;4966186;28;20061;-65
2022/04/01 07:49:42;;;;;;;0.10;0.10;;;;;;;5.44;64.58;100270.59;4952530;28;20448;-66
2022/04/01 07:52:09;;;;;;;0.20;0.20;;;;;;;5.50;65.03;100269.28;4964125;28;20047;-66
2022/04/01 07:54:35;;;;;;;0.30;0.30;;;;;;;5.39;63.24;100273.47;4965844;28;20210;-65
2022/04/01 07:57:06;;;;;;;0.10;0.10;;;;;;;5.54;64.28;100266.72;4966087;28;20097;-65
2022/04/01 07:59:31;;;;;;;0.20;0.20;;;;;;;5.57;63.37;100271.41;4967644;28;20541;-66
2022/04/01 08:01:57;;;;;;;0.10;0.10;;;;;;;5.75;62.84;100264.75;4967467;28;20042;-64
2022/04/01 08:04:25;;;;;;;0.30;0.30;;;;;;;5.78;61.86;100271.34;4972296;28;20506;-65
2022/04/01 08:06:51;;;;;;;0.08;0.08;;;;;;;5.84;61.16;100280.72;4964722;28;20046;-65
2022/04/01 08:09:17;;;;;;;0.10;0.10;;;;;;;5.96;60.90;100272.75;4966190;28;20049;-65
2022/04/01 08:11:43;;;;;;;0.10;0.10;;;;;;;6.06;60.49;100278.41;4967887;28;20038;-65
2022/04/01 08:14:08;;;;;;;0.20;0.20;;;;;;;6.19;60.78;100279.19;4965790;28;20046;-67
2022/04/01 08:16:34;;;;;;;0.10;0.10;;;;;;;6.14;60.32;100274.06;4996643;28;20121;-65
2022/04/01 08:18:59;;;;;;;1.30;1.23;;;;;;;6.11;59.72;100277.41;5009843;28;20028;-65
2022/04/01 08:21:25;;;;;;;0.20;0.20;;;;;;;6.26;59.96;100287.44;5007286;28;20045;-65
2022/04/01 08:23:52;;;;;;;0.10;0.10;;;;;;;6.51;58.01;100272.16;5028261;28;20041;-65
2022/04/01 08:26:17;;;;;;;0.65;0.65;;;;;;;6.37;56.82;100273.28;5027883;28;20041;-64
2022/04/01 08:28:43;;;;;;;0.10;0.10;;;;;;;6.31;57.58;100285.31;5009000;28;20048;-65
2022/04/01 08:31:09;;;;;;;0.30;0.20;;;;;;;6.55;58.42;100279.16;5024757;28;20037;-65
2022/04/01 08:33:38;;;;;;;0.10;0.10;;;;;;;6.51;57.61;100291.66;5013983;28;20045;-65
2022/04/01 08:36:04;;;;;;;0.20;0.20;;;;;;;6.73;58.21;100291.19;5027494;28;20296;-65
2022/04/01 08:38:30;;;;;;;0.10;0.10;;;;;;;6.86;56.38;100300.75;5017648;28;20049;-63
2022/04/01 08:40:55;;;;;;;0.10;0.10;;;;;;;6.82;56.86;100305.19;5016812;28;20022;-66
2022/04/01 08:43:26;;;;;;;0.10;0.10;;;;;;;6.72;56.23;100294.97;4995650;28;20485;-65
2022/04/01 08:45:53;;;;;;;0.10;0.10;;;;;;;6.57;56.46;100298.34;5004822;28;20040;-65
2022/04/01 08:48:18;;;;;;;0.10;0.10;;;;;;;6.59;57.43;100301.44;5019941;28;20561;-65
2022/04/01 08:50:44;;;;;;;0.10;0.10;;;;;;;6.63;56.95;100306.91;5012929;28;20038;-64
2022/04/01 08:53:10;;;;;;;0.10;0.10;;;;;;;6.86;57.15;100305.31;4994734;28;20485;-63
2022/04/01 08:55:35;;;;;;;0.10;0.10;;;;;;;6.94;56.83;100313.22;5002511;28;20045;-63
2022/04/01 08:58:01;;;;;;;0.22;0.22;;;;;;;6.90;56.85;100312.31;5018734;28;20131;-64
2022/04/01 09:00:30;;;;;;;0.20;0.20;;;;;;;6.90;56.66;100328.38;5005133;28;20040;-64
2022/04/01 09:03:06;;;;;;;0.17;0.17;;;;;;;6.65;56.23;100315.38;5004432;28;20033;-65
2022/04/01 09:05:31;;;;;;;0.40;0.40;;;;;;;6.71;55.90;100317.50;4994018;28;20171;-64
2022/04/01 09:08:07;;;;;;;0.10;0.10;;;;;;;6.79;55.44;100321.94;5027831;28;20120;-66
2022/04/01 09:11:15;;;;;;;0.10;0.10;;;;;;;6.64;55.64;100314.59;5008740;28;20033;-69
2022/04/01 09:13:43;;;;;;;0.20;0.20;;;;;;;6.91;55.12;100324.56;4947568;29;20545;-64
2022/04/01 09:16:22;;;;;;;0.10;0.10;;;;;;;7.00;55.16;100329.81;5013876;28;20037;-65
2022/04/01 09:18:48;;;;;;;0.10;0.10;;;;;;;7.17;54.33;100322.28;5026366;28;20044;-70
2022/04/01 09:21:14;;;;;;;0.20;0.20;;;;;;;7.11;53.91;100328.22;5020481;28;20029;-64
2022/04/01 09:23:46;;;;;;;0.10;0.10;;;;;;;7.20;53.09;100326.94;5022819;28;20336;-66
2022/04/01 09:26:11;;;;;;;0.20;0.20;;;;;;;7.20;52.96;100332.31;5021392;28;20064;-64
2022/04/01 09:28:41;;;;;;;0.10;0.10;;;;;;;7.12;53.22;100330.53;5021841;28;20038;-64
2022/04/01 09:31:07;;;;;;;0.20;0.20;;;;;;;7.12;54.43;100319.06;5022448;28;20431;-64
2022/04/01 09:33:47;;;;;;;0.20;0.20;;;;;;;7.03;53.54;100329.13;5022138;28;20048;-67
2022/04/01 09:36:17;;;;;;;0.22;0.22;;;;;;;7.23;53.94;100330.84;5012977;28;20512;-66
2022/04/01 09:38:55;;;;;;;0.10;0.10;;;;;;;7.01;52.97;100320.66;5006036;28;20030;-67
2022/04/01 09:41:27;;;;;;;0.43;0.43;;;;;;;7.16;53.59;100341.38;5016556;28;20460;-65
2022/04/01 09:44:01;;;;;;;0.10;0.10;;;;;;;7.16;52.36;100334.09;5015890;28;20465;-63
2022/04/01 09:46:27;;;;;;;0.10;0.10;;;;;;;7.16;52.83;100342.13;5017495;28;20029;-66
2022/04/01 09:48:57;;;;;;;0.10;0.10;;;;;;;7.04;53.34;100323.44;5018843;28;20361;-65
2022/04/01 09:51:23;;;;;;;0.10;0.10;;;;;;;7.09;52.11;100327.78;5021133;28;20037;-70
2022/04/01 09:53:53;;;;;;;0.10;0.10;;;;;;;7.24;52.29;100330.50;5019982;28;20480;-65
2022/04/01 09:56:35;;;;;;;0.10;0.10;;;;;;;7.22;52.63;100331.97;5018690;28;20029;-66
2022/04/01 09:59:04;;;;;;;0.17;0.17;;;;;;;7.22;53.32;100335.44;5008353;28;20036;-68
2022/04/01 10:01:30;;;;;;;0.17;0.17;;;;;;;7.29;52.85;100335.66;5012983;28;20058;-64
2022/04/01 10:03:55;;;;;;;0.10;0.10;;;;;;;7.24;52.96;100317.13;5015994;28;20478;-65
2022/04/01 10:06:21;;;;;;;0.25;0.25;;;;;;;7.32;52.96;100334.16;5000099;28;20037;-66
2022/04/01 10:08:47;;;;;;;0.10;0.10;;;;;;;7.23;52.71;100331.66;5016194;28;20037;-63
2022/04/01 10:11:14;;;;;;;0.13;0.13;;;;;;;7.12;52.36;100324.44;5019023;28;20026;-64
2022/04/01 10:13:40;;;;;;;0.10;0.10;;;;;;;7.20;52.01;100332.31;5020814;28;20042;-64
2022/04/01 10:16:08;;;;;;;0.30;0.30;;;;;;;7.05;51.19;100338.38;5022169;28;20061;-66
2022/04/01 10:18:35;;;;;;;0.22;0.22;;;;;;;7.10;52.66;100332.03;4999306;28;20060;-66
2022/04/01 10:21:03;;;;;;;0.35;0.35;;;;;;;7.13;52.38;100331.34;4997414;28;20121;-66
2022/04/01 10:23:30;;;;;;;0.10;0.10;;;;;;;7.04;52.24;100334.16;5004393;28;20029;-64
2022/04/01 10:26:04;;;;;;;0.00;0.00;;;;;;;7.13;51.62;100332.13;5007171;28;20072;-69
2022/04/01 10:28:29;;;;;;;0.10;0.10;;;;;;;7.37;51.42;100335.84;5019705;28;20045;-63
2022/04/01 10:30:57;;;;;;;0.20;0.20;;;;;;;7.36;50.54;100335.03;5007293;28;20046;-70
2022/04/01 10:33:26;;;;;;;0.20;0.20;;;;;;;7.40;51.27;100337.81;5018435;28;20124;-64
2022/04/01 10:35:52;;;;;;;0.20;0.20;;;;;;;7.48;51.67;100336.91;5020772;28;20037;-64
2022/04/01 10:38:20;;;;;;;0.10;0.10;;;;;;;7.77;51.83;100350.72;5016452;28;20479;-63
2022/04/01 10:40:53;;;;;;;0.90;0.90;;;;;;;7.89;52.11;100331.91;5016910;28;20439;-68
2022/04/01 10:43:26;;;;;;;0.10;0.10;;;;;;;7.80;50.90;100341.97;4986691;28;20441;-68
2022/04/01 10:46:00;;;;;;;0.08;0.08;;;;;;;7.84;51.36;100347.47;5013180;28;20026;-65
2022/04/01 10:54:22;;;;;;;0.95;0.40;;;;;;;7.65;53.37;100350.78;4995607;28;20045;-63
2022/04/01 10:56:53;;;;;;;0.10;0.10;;;;;;;7.83;54.10;100346.66;5015922;28;20424;-67
2022/04/01 10:59:23;;;;;;;0.10;0.10;;;;;;;7.94;54.09;100344.25;5015176;28;20034;-65
2022/04/01 11:01:51;;;;;;;0.10;0.10;;;;;;;8.05;53.22;100348.00;5014182;28;20079;-70
2022/04/01 11:04:16;;;;;;;0.10;0.10;;;;;;;8.00;52.85;100348.25;5005327;28;20128;-63
2022/04/01 11:06:56;;;;;;;0.25;0.25;;;;;;;7.98;52.90;100362.00;5026389;28;20116;-64
2022/04/01 11:09:55;;;;;;;0.17;0.17;;;;;;;7.84;52.69;100358.19;5005399;28;20033;-63
2022/04/01 11:12:21;;;;;;;0.10;0.10;;;;;;;7.97;53.72;100362.34;5011733;28;20124;-65
2022/04/01 11:14:56;;;;;;;0.10;0.10;;;;;;;8.13;53.63;100355.06;5024676;28;20037;-64
2022/04/01 11:17:22;;;;;;;0.10;0.10;;;;;;;8.15;52.86;100350.16;5002715;28;20116;-64
2022/04/01 11:20:09;;;;;;;0.10;0.10;;;;;;;8.27;52.75;100363.50;5016756;28;20137;-65
2022/04/01 11:22:41;;;;;;;1.58;0.52;;;;;;;8.41;51.62;100360.38;5017771;28;20118;-65
2022/04/01 11:25:11;;;;;;;0.10;0.10;;;;;;;8.43;51.42;100345.50;4999723;28;20050;-65
2022/04/01 11:28:03;;;;;;;0.10;0.10;;;;;;;8.71;51.26;100346.16;5001975;28;20029;-66
2022/04/01 11:30:33;;;;;;;0.13;0.13;;;;;;;8.43;50.89;100356.25;5016994;28;20038;-64
2022/04/01 11:33:05;;;;;;;0.10;0.10;;;;;;;8.36;52.04;100345.34;5024060;28;20033;-65
2022/04/01 11:35:34;;;;;;;0.10;0.10;;;;;;;8.31;52.16;100344.81;5014671;28;20092;-65
2022/04/01 11:38:00;;;;;;;0.10;0.10;;;;;;;8.43;52.65;100353.56;4986103;28;20065;-66
2022/04/01 11:40:28;;;;;;;1.20;0.65;;;;;;;8.36;51.78;100353.41;5001446;28;20114;-65
2022/04/01 11:42:57;;;;;;;0.10;0.10;;;;;;;8.44;52.08;100351.66;5002852;28;20369;-68
2022/04/01 11:45:24;;;;;;;0.20;0.20;;;;;;;8.38;52.08;100345.75;5011831;28;20073;-63
2022/04/01 11:47:50;;;;;;;0.10;0.10;;;;;;;8.31;51.73;100353.66;5014961;28;20436;-64
2022/04/01 11:50:18;;;;;;;0.10;0.10;;;;;;;8.27;52.70;100358.16;5014265;28;20087;-65
2022/04/01 11:52:48;;;;;;;0.10;0.10;;;;;;;8.24;52.92;100348.09;5008737;28;20045;-65
2022/04/01 11:55:16;;;;;;;0.15;0.15;;;;;;;8.15;53.50;100361.66;5022152;28;20025;-64
2022/04/01 11:57:42;;;;;;;0.10;0.10;;;;;;;8.09;52.86;100359.59;5008017;28;20041;-63
2022/04/01 12:00:11;;;;;;;0.10;0.10;;;;;;;8.03;53.89;100352.94;5013053;28;20033;-64
2022/04/01 12:02:38;;;;;;;0.05;0.05;;;;;;;8.29;54.84;100353.22;5016533;28;20033;-65
2022/04/01 12:05:04;;;;;;;0.10;0.10;;;;;;;8.47;54.67;100359.00;5011215;28;20069;-66
2022/04/01 12:10:28;;;;;;;0.10;0.10;;;;;;;8.70;52.60;100343.81;4993128;28;20817;-68
2022/04/01 12:13:02;;;;;;;0.10;0.10;;;;;;;8.55;53.67;100350.78;5005148;28;20142;-72